sensor_id;sensor_type;location;lat;lon;timestamp;pressure;altitude;pressure_sealevel;temperature;humidity
8653;BME280;4364;52.426;9.424;2023-05-15T00:02:02;100813.94;;;11.83;81.80
8653;BME280;4364;52.426;9.424;2023-05-15T00:04:29;100810.69;;;11.81;81.92
8653;BME280;4364;52.426;9.424;2023-05-15T00:06:56;100804.72;;;11.74;82.31
8653;BME280;4364;52.426;9.424;2023-05-15T00:09:23;100797.66;;;11.73;82.57
8653;BME280;4364;52.426;9.424;2023-05-15T00:11:49;100803.63;;;11.75;82.30
8653;BME280;4364;52.426;9.424;2023-05-15T00:14:16;100797.94;;;11.72;82.07
8653;BME280;4364;52.426;9.424;2023-05-15T00:16:42;100797.72;;;11.63;82.31
8653;BME280;4364;52.426;9.424;2023-05-15T00:19:09;100801.00;;;11.60;82.19
8653;BME280;4364;52.426;9.424;2023-05-15T00:21:36;100799.41;;;11.54;82.11
8653;BME280;4364;52.426;9.424;2023-05-15T00:24:02;100819.03;;;11.50;82.19
8653;BME280;4364;52.426;9.424;2023-05-15T00:26:29;100806.25;;;11.51;81.16
8653;BME280;4364;52.426;9.424;2023-05-15T00:28:56;100802.16;;;11.48;81.92
8653;BME280;4364;52.426;9.424;2023-05-15T00:31:22;100800.53;;;11.42;82.34
8653;BME280;4364;52.426;9.424;2023-05-15T00:33:50;100806.53;;;11.39;82.96
8653;BME280;4364;52.426;9.424;2023-05-15T00:36:16;100802.53;;;11.31;82.70
8653;BME280;4364;52.426;9.424;2023-05-15T00:38:43;100803.88;;;11.29;83.26
8653;BME280;4364;52.426;9.424;2023-05-15T00:41:10;100794.91;;;11.28;83.19
8653;BME280;4364;52.426;9.424;2023-05-15T00:43:38;100793.84;;;11.24;83.07
8653;BME280;4364;52.426;9.424;2023-05-15T00:46:05;100788.97;;;11.21;83.01
8653;BME280;4364;52.426;9.424;2023-05-15T00:48:32;100785.41;;;11.21;83.10
8653;BME280;4364;52.426;9.424;2023-05-15T00:50:59;100785.16;;;11.12;83.89
8653;BME280;4364;52.426;9.424;2023-05-15T00:53:26;100787.63;;;11.13;83.93
8653;BME280;4364;52.426;9.424;2023-05-15T00:55:56;100783.28;;;11.07;84.28
8653;BME280;4364;52.426;9.424;2023-05-15T00:58:26;100789.59;;;10.98;84.57
8653;BME280;4364;52.426;9.424;2023-05-15T01:00:52;100777.31;;;11.00;83.61
8653;BME280;4364;52.426;9.424;2023-05-15T01:03:19;100779.84;;;10.81;85.18
8653;BME280;4364;52.426;9.424;2023-05-15T01:05:46;100775.50;;;10.75;85.38
8653;BME280;4364;52.426;9.424;2023-05-15T01:08:19;100776.56;;;10.74;85.31
8653;BME280;4364;52.426;9.424;2023-05-15T01:10:47;100777.97;;;10.71;85.71
8653;BME280;4364;52.426;9.424;2023-05-15T01:13:19;100780.16;;;10.69;85.33
8653;BME280;4364;52.426;9.424;2023-05-15T01:15:48;100775.22;;;10.77;84.96
8653;BME280;4364;52.426;9.424;2023-05-15T01:18:15;100770.63;;;10.67;85.27
8653;BME280;4364;52.426;9.424;2023-05-15T01:20:53;100772.81;;;10.65;85.82
8653;BME280;4364;52.426;9.424;2023-05-15T01:23:36;100768.72;;;10.62;86.28
8653;BME280;4364;52.426;9.424;2023-05-15T01:29:07;100777.19;;;10.40;86.33
8653;BME280;4364;52.426;9.424;2023-05-15T01:31:41;100776.09;;;10.26;87.22
8653;BME280;4364;52.426;9.424;2023-05-15T01:34:09;100771.22;;;10.12;88.30
8653;BME280;4364;52.426;9.424;2023-05-15T01:36:42;100763.88;;;9.97;88.90
8653;BME280;4364;52.426;9.424;2023-05-15T01:39:14;100773.09;;;9.86;89.47
8653;BME280;4364;52.426;9.424;2023-05-15T01:41:51;100776.63;;;9.87;89.92
8653;BME280;4364;52.426;9.424;2023-05-15T01:46:49;100758.41;;;9.72;90.46
8653;BME280;4364;52.426;9.424;2023-05-15T01:49:18;100762.50;;;9.64;90.71
8653;BME280;4364;52.426;9.424;2023-05-15T01:51:50;100755.41;;;9.58;91.26
8653;BME280;4364;52.426;9.424;2023-05-15T01:54:18;100749.19;;;9.57;91.66
8653;BME280;4364;52.426;9.424;2023-05-15T01:56:44;100749.19;;;9.62;91.25
8653;BME280;4364;52.426;9.424;2023-05-15T01:59:15;100748.09;;;9.69;90.56
8653;BME280;4364;52.426;9.424;2023-05-15T02:01:42;100747.81;;;9.65;91.03
8653;BME280;4364;52.426;9.424;2023-05-15T02:04:10;100746.19;;;9.64;91.29
8653;BME280;4364;52.426;9.424;2023-05-15T02:06:38;100735.06;;;9.71;90.90
8653;BME280;4364;52.426;9.424;2023-05-15T02:09:05;100728.28;;;9.78;91.01
8653;BME280;4364;52.426;9.424;2023-05-15T02:11:32;100738.34;;;9.78;90.99
8653;BME280;4364;52.426;9.424;2023-05-15T02:13:59;100735.06;;;9.76;90.44
8653;BME280;4364;52.426;9.424;2023-05-15T02:16:27;100736.69;;;9.77;90.28
8653;BME280;4364;52.426;9.424;2023-05-15T02:18:54;100736.16;;;9.75;90.48
8653;BME280;4364;52.426;9.424;2023-05-15T02:21:20;100735.88;;;9.76;90.34
8653;BME280;4364;52.426;9.424;2023-05-15T02:23:47;100733.97;;;9.82;90.43
8653;BME280;4364;52.426;9.424;2023-05-15T02:29:14;100744.00;;;9.61;90.66
8653;BME280;4364;52.426;9.424;2023-05-15T02:31:51;100727.19;;;9.64;90.21
8653;BME280;4364;52.426;9.424;2023-05-15T02:36:51;100732.06;;;9.57;90.53
8653;BME280;4364;52.426;9.424;2023-05-15T02:39:20;100729.59;;;9.55;90.96
8653;BME280;4364;52.426;9.424;2023-05-15T02:41:49;100729.03;;;9.38;91.30
8653;BME280;4364;52.426;9.424;2023-05-15T02:44:18;100728.50;;;9.41;91.78
8653;BME280;4364;52.426;9.424;2023-05-15T02:46:46;100721.97;;;9.42;91.25
8653;BME280;4364;52.426;9.424;2023-05-15T02:49:14;100720.09;;;9.48;91.31
8653;BME280;4364;52.426;9.424;2023-05-15T02:51:40;100710.06;;;9.53;91.16
8653;BME280;4364;52.426;9.424;2023-05-15T02:54:07;100710.59;;;9.55;91.13
8653;BME280;4364;52.426;9.424;2023-05-15T02:56:34;100710.34;;;9.57;90.73
8653;BME280;4364;52.426;9.424;2023-05-15T02:59:01;100708.72;;;9.56;90.51
8653;BME280;4364;52.426;9.424;2023-05-15T03:01:28;100705.44;;;9.54;90.57
8653;BME280;4364;52.426;9.424;2023-05-15T03:03:54;100716.03;;;9.50;90.70
8653;BME280;4364;52.426;9.424;2023-05-15T03:06:21;100703.28;;;9.61;89.96
8653;BME280;4364;52.426;9.424;2023-05-15T03:08:47;100702.19;;;9.62;90.55
8653;BME280;4364;52.426;9.424;2023-05-15T03:11:13;100708.47;;;9.62;90.63
8653;BME280;4364;52.426;9.424;2023-05-15T03:13:40;100700.84;;;9.59;90.33
8653;BME280;4364;52.426;9.424;2023-05-15T03:16:06;100712.50;;;9.55;90.38
8653;BME280;4364;52.426;9.424;2023-05-15T03:18:33;100715.19;;;9.39;91.69
8653;BME280;4364;52.426;9.424;2023-05-15T03:21:00;100711.38;;;9.40;91.55
8653;BME280;4364;52.426;9.424;2023-05-15T03:23:26;100710.03;;;9.38;91.32
8653;BME280;4364;52.426;9.424;2023-05-15T03:25:53;100707.06;;;9.39;92.30
8653;BME280;4364;52.426;9.424;2023-05-15T03:28:19;100708.13;;;9.33;91.78
8653;BME280;4364;52.426;9.424;2023-05-15T03:30:45;100704.59;;;9.27;92.13
8653;BME280;4364;52.426;9.424;2023-05-15T03:33:12;100696.19;;;9.24;91.71
8653;BME280;4364;52.426;9.424;2023-05-15T03:35:38;100701.31;;;9.20;92.22
8653;BME280;4364;52.426;9.424;2023-05-15T03:38:05;100702.94;;;9.16;92.07
8653;BME280;4364;52.426;9.424;2023-05-15T03:40:32;100703.75;;;9.17;91.99
8653;BME280;4364;52.426;9.424;2023-05-15T03:42:58;100703.72;;;9.12;91.95
8653;BME280;4364;52.426;9.424;2023-05-15T03:45:25;100695.78;;;8.89;93.05
8653;BME280;4364;52.426;9.424;2023-05-15T03:47:52;100700.94;;;8.86;93.92
8653;BME280;4364;52.426;9.424;2023-05-15T03:50:19;100696.34;;;8.92;93.71
8653;BME280;4364;52.426;9.424;2023-05-15T03:52:45;100698.53;;;9.00;93.22
8653;BME280;4364;52.426;9.424;2023-05-15T03:55:12;100701.25;;;8.95;93.72
8653;BME280;4364;52.426;9.424;2023-05-15T03:57:38;100701.78;;;8.97;94.21
8653;BME280;4364;52.426;9.424;2023-05-15T04:00:07;100696.38;;;9.02;94.07
8653;BME280;4364;52.426;9.424;2023-05-15T04:02:40;100696.69;;;9.11;93.72
8653;BME280;4364;52.426;9.424;2023-05-15T04:05:07;100699.69;;;9.14;93.55
8653;BME280;4364;52.426;9.424;2023-05-15T04:07:35;100699.44;;;9.21;93.74
8653;BME280;4364;52.426;9.424;2023-05-15T04:10:02;100701.59;;;9.24;93.52
8653;BME280;4364;52.426;9.424;2023-05-15T04:12:31;100692.09;;;9.21;92.95
8653;BME280;4364;52.426;9.424;2023-05-15T04:15:16;100701.88;;;9.27;93.28
8653;BME280;4364;52.426;9.424;2023-05-15T04:17:44;100696.72;;;9.26;92.56
8653;BME280;4364;52.426;9.424;2023-05-15T04:20:16;100697.78;;;9.20;93.54
8653;BME280;4364;52.426;9.424;2023-05-15T04:22:43;100699.72;;;9.30;93.75
8653;BME280;4364;52.426;9.424;2023-05-15T04:25:11;100696.47;;;9.38;93.39
8653;BME280;4364;52.426;9.424;2023-05-15T04:27:39;100692.69;;;9.44;92.85
8653;BME280;4364;52.426;9.424;2023-05-15T04:30:07;100683.19;;;9.46;92.97
8653;BME280;4364;52.426;9.424;2023-05-15T04:32:34;100691.31;;;9.31;92.97
8653;BME280;4364;52.426;9.424;2023-05-15T04:35:02;100697.00;;;9.30;93.51
8653;BME280;4364;52.426;9.424;2023-05-15T04:37:31;100688.31;;;9.33;93.72
8653;BME280;4364;52.426;9.424;2023-05-15T04:39:57;100689.41;;;9.42;93.28
8653;BME280;4364;52.426;9.424;2023-05-15T04:42:24;100694.84;;;9.37;93.06
8653;BME280;4364;52.426;9.424;2023-05-15T04:44:52;100696.72;;;9.31;93.76
8653;BME280;4364;52.426;9.424;2023-05-15T04:47:18;100704.34;;;9.29;93.57
8653;BME280;4364;52.426;9.424;2023-05-15T04:49:45;100704.34;;;9.29;94.48
8653;BME280;4364;52.426;9.424;2023-05-15T04:52:13;100707.88;;;9.45;94.57
8653;BME280;4364;52.426;9.424;2023-05-15T04:54:39;100701.91;;;9.48;93.07
8653;BME280;4364;52.426;9.424;2023-05-15T04:57:06;100694.03;;;9.52;92.71
8653;BME280;4364;52.426;9.424;2023-05-15T04:59:33;100703.53;;;9.39;93.64
8653;BME280;4364;52.426;9.424;2023-05-15T05:02:00;100708.41;;;9.37;93.84
8653;BME280;4364;52.426;9.424;2023-05-15T05:04:28;100714.09;;;9.40;93.89
8653;BME280;4364;52.426;9.424;2023-05-15T05:06:54;100706.25;;;9.44;93.81
8653;BME280;4364;52.426;9.424;2023-05-15T05:09:20;100714.66;;;9.42;94.18
8653;BME280;4364;52.426;9.424;2023-05-15T05:11:47;100703.03;;;9.52;94.14
8653;BME280;4364;52.426;9.424;2023-05-15T05:14:13;100697.88;;;9.61;94.31
8653;BME280;4364;52.426;9.424;2023-05-15T05:16:43;100697.88;;;9.81;93.46
8653;BME280;4364;52.426;9.424;2023-05-15T05:19:10;100690.81;;;9.86;93.13
8653;BME280;4364;52.426;9.424;2023-05-15T05:21:37;100685.91;;;9.88;92.64
8653;BME280;4364;52.426;9.424;2023-05-15T05:24:03;100690.28;;;9.99;92.61
8653;BME280;4364;52.426;9.424;2023-05-15T05:26:30;100698.66;;;10.08;91.82
8653;BME280;4364;52.426;9.424;2023-05-15T05:28:56;100687.25;;;10.00;91.94
8653;BME280;4364;52.426;9.424;2023-05-15T05:31:23;100692.69;;;9.95;92.05
8653;BME280;4364;52.426;9.424;2023-05-15T05:33:49;100693.50;;;10.01;91.92
8653;BME280;4364;52.426;9.424;2023-05-15T05:36:17;100692.13;;;10.14;91.83
8653;BME280;4364;52.426;9.424;2023-05-15T05:38:44;100696.19;;;10.27;91.41
8653;BME280;4364;52.426;9.424;2023-05-15T05:41:10;100682.84;;;10.41;90.81
8653;BME280;4364;52.426;9.424;2023-05-15T05:43:37;100688.28;;;10.51;90.07
8653;BME280;4364;52.426;9.424;2023-05-15T05:46:03;100690.13;;;10.61;90.01
8653;BME280;4364;52.426;9.424;2023-05-15T05:48:30;100688.50;;;10.65;90.16
8653;BME280;4364;52.426;9.424;2023-05-15T05:50:56;100697.41;;;10.81;89.27
8653;BME280;4364;52.426;9.424;2023-05-15T05:53:23;100697.44;;;10.75;89.40
8653;BME280;4364;52.426;9.424;2023-05-15T05:55:50;100697.97;;;10.72;90.16
8653;BME280;4364;52.426;9.424;2023-05-15T05:58:16;100695.81;;;10.74;90.92
8653;BME280;4364;52.426;9.424;2023-05-15T06:00:49;100696.31;;;10.82;91.33
8653;BME280;4364;52.426;9.424;2023-05-15T06:03:16;100699.81;;;10.98;91.12
8653;BME280;4364;52.426;9.424;2023-05-15T06:05:42;100704.91;;;11.09;89.66
8653;BME280;4364;52.426;9.424;2023-05-15T06:08:09;100700.31;;;11.05;90.04
8653;BME280;4364;52.426;9.424;2023-05-15T06:10:35;100706.75;;;11.19;89.79
8653;BME280;4364;52.426;9.424;2023-05-15T06:13:02;100696.53;;;11.45;89.50
8653;BME280;4364;52.426;9.424;2023-05-15T06:15:29;100707.31;;;11.61;88.90
8653;BME280;4364;52.426;9.424;2023-05-15T06:17:55;100704.22;;;11.73;87.42
8653;BME280;4364;52.426;9.424;2023-05-15T06:20:22;100712.63;;;11.81;86.23
8653;BME280;4364;52.426;9.424;2023-05-15T06:22:49;100700.31;;;11.84;85.93
8653;BME280;4364;52.426;9.424;2023-05-15T06:25:15;100704.38;;;11.92;85.94
8653;BME280;4364;52.426;9.424;2023-05-15T06:27:42;100703.44;;;12.07;85.82
8653;BME280;4364;52.426;9.424;2023-05-15T06:30:09;100711.97;;;12.24;84.73
8653;BME280;4364;52.426;9.424;2023-05-15T06:32:36;100705.91;;;12.32;85.05
8653;BME280;4364;52.426;9.424;2023-05-15T06:35:02;100710.09;;;12.49;84.34
8653;BME280;4364;52.426;9.424;2023-05-15T06:37:29;100703.78;;;12.53;83.30
8653;BME280;4364;52.426;9.424;2023-05-15T06:39:55;100704.13;;;12.71;82.60
8653;BME280;4364;52.426;9.424;2023-05-15T06:42:22;100712.78;;;12.78;81.99
8653;BME280;4364;52.426;9.424;2023-05-15T06:44:48;100710.50;;;12.85;82.24
8653;BME280;4364;52.426;9.424;2023-05-15T06:47:15;100709.28;;;12.96;81.51
8653;BME280;4364;52.426;9.424;2023-05-15T06:49:41;100712.53;;;12.98;81.43
8653;BME280;4364;52.426;9.424;2023-05-15T06:52:08;100715.53;;;12.97;80.79
8653;BME280;4364;52.426;9.424;2023-05-15T06:54:34;100708.44;;;12.96;80.99
8653;BME280;4364;52.426;9.424;2023-05-15T06:57:01;100706.25;;;12.98;79.42
8653;BME280;4364;52.426;9.424;2023-05-15T06:59:28;100708.72;;;12.94;79.86
8653;BME280;4364;52.426;9.424;2023-05-15T07:01:54;100710.94;;;12.92;80.27
8653;BME280;4364;52.426;9.424;2023-05-15T07:04:21;100712.06;;;12.91;80.85
8653;BME280;4364;52.426;9.424;2023-05-15T07:06:47;100707.66;;;13.14;80.17
8653;BME280;4364;52.426;9.424;2023-05-15T07:09:14;100696.38;;;13.21;80.16
8653;BME280;4364;52.426;9.424;2023-05-15T07:11:40;100700.47;;;13.43;79.26
8653;BME280;4364;52.426;9.424;2023-05-15T07:14:07;100699.44;;;13.39;79.18
8653;BME280;4364;52.426;9.424;2023-05-15T07:16:33;100703.72;;;13.45;78.81
8653;BME280;4364;52.426;9.424;2023-05-15T07:19:00;100701.44;;;13.52;78.54
8653;BME280;4364;52.426;9.424;2023-05-15T07:21:27;100706.31;;;13.55;79.02
8653;BME280;4364;52.426;9.424;2023-05-15T07:23:53;100707.09;;;13.56;79.59
8653;BME280;4364;52.426;9.424;2023-05-15T07:26:20;100701.25;;;13.62;78.50
8653;BME280;4364;52.426;9.424;2023-05-15T07:29:04;100702.91;;;13.63;79.06
8653;BME280;4364;52.426;9.424;2023-05-15T07:31:30;100708.13;;;13.79;78.70
8653;BME280;4364;52.426;9.424;2023-05-15T07:33:58;100703.06;;;13.86;77.52
8653;BME280;4364;52.426;9.424;2023-05-15T07:36:25;100701.47;;;13.85;76.65
8653;BME280;4364;52.426;9.424;2023-05-15T07:38:51;100688.50;;;13.90;77.01
8653;BME280;4364;52.426;9.424;2023-05-15T07:41:18;100692.25;;;13.95;76.12
8653;BME280;4364;52.426;9.424;2023-05-15T07:43:44;100684.78;;;14.00;74.41
8653;BME280;4364;52.426;9.424;2023-05-15T07:46:11;100684.75;;;13.86;74.43
8653;BME280;4364;52.426;9.424;2023-05-15T07:48:40;100681.50;;;13.84;73.53
8653;BME280;4364;52.426;9.424;2023-05-15T07:51:07;100684.44;;;13.88;74.07
8653;BME280;4364;52.426;9.424;2023-05-15T07:53:34;100672.31;;;13.94;73.71
8653;BME280;4364;52.426;9.424;2023-05-15T07:56:01;100681.88;;;14.11;73.45
8653;BME280;4364;52.426;9.424;2023-05-15T07:58:27;100685.56;;;14.34;71.89
8653;BME280;4364;52.426;9.424;2023-05-15T08:00:54;100681.00;;;14.43;70.63
8653;BME280;4364;52.426;9.424;2023-05-15T08:03:20;100672.22;;;14.60;71.64
8653;BME280;4364;52.426;9.424;2023-05-15T08:05:47;100679.19;;;14.80;69.18
8653;BME280;4364;52.426;9.424;2023-05-15T08:08:13;100676.78;;;15.15;68.36
8653;BME280;4364;52.426;9.424;2023-05-15T08:10:39;100670.09;;;15.21;69.35
8653;BME280;4364;52.426;9.424;2023-05-15T08:13:06;100678.06;;;15.31;68.95
8653;BME280;4364;52.426;9.424;2023-05-15T08:15:33;100678.78;;;15.37;68.30
8653;BME280;4364;52.426;9.424;2023-05-15T08:17:59;100672.44;;;15.50;67.66
8653;BME280;4364;52.426;9.424;2023-05-15T08:20:27;100669.69;;;15.50;66.68
8653;BME280;4364;52.426;9.424;2023-05-15T08:22:53;100683.16;;;15.61;66.78
8653;BME280;4364;52.426;9.424;2023-05-15T08:25:20;100672.38;;;15.87;66.26
8653;BME280;4364;52.426;9.424;2023-05-15T08:27:46;100668.16;;;16.12;65.45
8653;BME280;4364;52.426;9.424;2023-05-15T08:30:13;100666.09;;;16.18;63.83
8653;BME280;4364;52.426;9.424;2023-05-15T08:32:41;100665.25;;;16.48;63.51
8653;BME280;4364;52.426;9.424;2023-05-15T08:35:08;100661.28;;;16.72;60.50
8653;BME280;4364;52.426;9.424;2023-05-15T08:37:34;100660.00;;;16.78;58.59
8653;BME280;4364;52.426;9.424;2023-05-15T08:40:01;100658.47;;;17.03;58.82
8653;BME280;4364;52.426;9.424;2023-05-15T08:42:43;100658.50;;;17.30;59.74
8653;BME280;4364;52.426;9.424;2023-05-15T08:45:12;100657.34;;;17.57;58.28
8653;BME280;4364;52.426;9.424;2023-05-15T08:47:41;100654.78;;;17.43;58.79
8653;BME280;4364;52.426;9.424;2023-05-15T08:50:10;100651.06;;;17.48;58.59
8653;BME280;4364;52.426;9.424;2023-05-15T08:52:41;100653.28;;;17.63;58.10
8653;BME280;4364;52.426;9.424;2023-05-15T08:55:16;100647.78;;;17.89;58.73
8653;BME280;4364;52.426;9.424;2023-05-15T08:57:43;100643.34;;;18.14;56.97
8653;BME280;4364;52.426;9.424;2023-05-15T09:00:11;100639.38;;;18.33;56.79
8653;BME280;4364;52.426;9.424;2023-05-15T09:02:40;100638.53;;;18.32;54.46
8653;BME280;4364;52.426;9.424;2023-05-15T09:05:09;100640.44;;;18.41;54.61
8653;BME280;4364;52.426;9.424;2023-05-15T09:07:37;100636.03;;;18.48;54.25
8653;BME280;4364;52.426;9.424;2023-05-15T09:10:07;100628.59;;;18.49;54.40
8653;BME280;4364;52.426;9.424;2023-05-15T09:12:35;100634.81;;;18.67;53.09
8653;BME280;4364;52.426;9.424;2023-05-15T09:17:36;100630.97;;;19.10;51.18
8653;BME280;4364;52.426;9.424;2023-05-15T09:20:03;100625.25;;;19.15;51.88
8653;BME280;4364;52.426;9.424;2023-05-15T09:22:34;100628.59;;;19.42;52.02
8653;BME280;4364;52.426;9.424;2023-05-15T09:25:02;100633.13;;;19.59;50.11
8653;BME280;4364;52.426;9.424;2023-05-15T09:27:29;100632.25;;;19.67;48.75
8653;BME280;4364;52.426;9.424;2023-05-15T09:30:07;100616.50;;;19.68;49.19
8653;BME280;4364;52.426;9.424;2023-05-15T09:32:33;100625.66;;;19.59;49.07
8653;BME280;4364;52.426;9.424;2023-05-15T09:35:02;100628.00;;;19.70;48.12
8653;BME280;4364;52.426;9.424;2023-05-15T09:37:31;100625.09;;;19.87;48.00
8653;BME280;4364;52.426;9.424;2023-05-15T09:40:09;100618.88;;;19.90;47.08
8653;BME280;4364;52.426;9.424;2023-05-15T09:42:39;100623.84;;;19.97;47.54
8653;BME280;4364;52.426;9.424;2023-05-15T09:45:15;100622.22;;;19.84;46.02
8653;BME280;4364;52.426;9.424;2023-05-15T09:47:43;100625.94;;;20.00;47.00
8653;BME280;4364;52.426;9.424;2023-05-15T09:50:11;100631.56;;;20.04;46.60
8653;BME280;4364;52.426;9.424;2023-05-15T09:52:38;100614.88;;;20.12;46.85
8653;BME280;4364;52.426;9.424;2023-05-15T09:55:05;100622.59;;;20.19;46.25
8653;BME280;4364;52.426;9.424;2023-05-15T09:57:32;100621.91;;;20.10;45.85
8653;BME280;4364;52.426;9.424;2023-05-15T10:00:00;100615.03;;;20.28;46.19
8653;BME280;4364;52.426;9.424;2023-05-15T10:02:39;100614.66;;;20.42;44.52
8653;BME280;4364;52.426;9.424;2023-05-15T10:05:07;100616.63;;;20.42;44.74
8653;BME280;4364;52.426;9.424;2023-05-15T10:07:34;100605.22;;;20.80;45.07
8653;BME280;4364;52.426;9.424;2023-05-15T10:10:03;100601.88;;;20.75;44.05
8653;BME280;4364;52.426;9.424;2023-05-15T10:12:30;100611.31;;;20.86;45.08
8653;BME280;4364;52.426;9.424;2023-05-15T10:14:58;100603.59;;;20.91;44.24
8653;BME280;4364;52.426;9.424;2023-05-15T10:17:30;100604.41;;;21.20;44.28
8653;BME280;4364;52.426;9.424;2023-05-15T10:19:58;100612.84;;;21.40;41.64
8653;BME280;4364;52.426;9.424;2023-05-15T10:22:36;100608.06;;;21.24;43.26
8653;BME280;4364;52.426;9.424;2023-05-15T10:28:01;100615.16;;;21.38;43.66
8653;BME280;4364;52.426;9.424;2023-05-15T10:30:30;100599.28;;;21.35;42.73
8653;BME280;4364;52.426;9.424;2023-05-15T10:32:57;100597.66;;;21.05;44.43
8653;BME280;4364;52.426;9.424;2023-05-15T10:35:25;100597.41;;;21.10;44.00
8653;BME280;4364;52.426;9.424;2023-05-15T10:37:52;100588.72;;;21.53;44.17
8653;BME280;4364;52.426;9.424;2023-05-15T10:40:19;100593.94;;;21.70;43.56
8653;BME280;4364;52.426;9.424;2023-05-15T10:42:45;100592.50;;;21.76;42.16
8653;BME280;4364;52.426;9.424;2023-05-15T10:45:13;100598.38;;;21.59;41.74
8653;BME280;4364;52.426;9.424;2023-05-15T10:47:41;100589.66;;;21.44;42.55
8653;BME280;4364;52.426;9.424;2023-05-15T10:50:09;100581.88;;;21.78;43.13
8653;BME280;4364;52.426;9.424;2023-05-15T10:52:38;100589.69;;;21.89;42.28
8653;BME280;4364;52.426;9.424;2023-05-15T10:55:12;100578.41;;;21.81;40.93
8653;BME280;4364;52.426;9.424;2023-05-15T10:57:39;100581.16;;;21.81;40.82
8653;BME280;4364;52.426;9.424;2023-05-15T11:00:26;100572.53;;;21.99;40.17
8653;BME280;4364;52.426;9.424;2023-05-15T11:02:54;100575.09;;;21.92;40.31
8653;BME280;4364;52.426;9.424;2023-05-15T11:05:24;100579.47;;;21.93;40.15
8653;BME280;4364;52.426;9.424;2023-05-15T11:10:40;100569.81;;;22.18;41.96
8653;BME280;4364;52.426;9.424;2023-05-15T11:13:07;100568.13;;;22.46;40.99
8653;BME280;4364;52.426;9.424;2023-05-15T11:15:44;100570.72;;;22.74;40.39
8653;BME280;4364;52.426;9.424;2023-05-15T11:18:12;100553.53;;;23.04;40.96
8653;BME280;4364;52.426;9.424;2023-05-15T11:20:41;100565.00;;;22.31;42.99
8653;BME280;4364;52.426;9.424;2023-05-15T11:23:08;100552.13;;;21.43;44.07
8653;BME280;4364;52.426;9.424;2023-05-15T11:25:35;100563.41;;;21.38;45.85
8653;BME280;4364;52.426;9.424;2023-05-15T11:28:03;100559.25;;;21.44;46.65
8653;BME280;4364;52.426;9.424;2023-05-15T11:30:37;100562.25;;;21.39;46.64
8653;BME280;4364;52.426;9.424;2023-05-15T11:33:06;100550.91;;;21.57;45.86
8653;BME280;4364;52.426;9.424;2023-05-15T11:35:39;100552.94;;;21.60;42.19
8653;BME280;4364;52.426;9.424;2023-05-15T11:38:15;100540.19;;;22.03;43.27
8653;BME280;4364;52.426;9.424;2023-05-15T11:40:56;100547.59;;;22.31;42.55
8653;BME280;4364;52.426;9.424;2023-05-15T11:43:24;100541.78;;;22.36;40.88
8653;BME280;4364;52.426;9.424;2023-05-15T11:48:36;100546.09;;;21.70;40.24
8653;BME280;4364;52.426;9.424;2023-05-15T11:51:05;100543.22;;;21.66;40.26
8653;BME280;4364;52.426;9.424;2023-05-15T11:53:39;100537.16;;;21.76;40.78
8653;BME280;4364;52.426;9.424;2023-05-15T11:56:05;100544.59;;;21.72;41.49
8653;BME280;4364;52.426;9.424;2023-05-15T11:58:32;100536.94;;;21.37;41.56
8653;BME280;4364;52.426;9.424;2023-05-15T12:00:58;100536.78;;;21.18;41.99
8653;BME280;4364;52.426;9.424;2023-05-15T12:03:33;100532.81;;;21.03;41.61
8653;BME280;4364;52.426;9.424;2023-05-15T12:06:02;100522.59;;;21.03;41.65
8653;BME280;4364;52.426;9.424;2023-05-15T12:08:35;100526.44;;;20.86;42.33
8653;BME280;4364;52.426;9.424;2023-05-15T12:11:03;100522.22;;;20.77;42.57
8653;BME280;4364;52.426;9.424;2023-05-15T12:13:31;100532.81;;;20.75;42.99
8653;BME280;4364;52.426;9.424;2023-05-15T12:16:02;100523.38;;;20.76;42.74
8653;BME280;4364;52.426;9.424;2023-05-15T12:18:30;100522.78;;;21.10;41.80
8653;BME280;4364;52.426;9.424;2023-05-15T12:20:57;100519.41;;;21.33;42.54
8653;BME280;4364;52.426;9.424;2023-05-15T12:23:25;100520.28;;;21.21;42.78
8653;BME280;4364;52.426;9.424;2023-05-15T12:25:56;100518.22;;;21.18;43.05
8653;BME280;4364;52.426;9.424;2023-05-15T12:28:24;100524.19;;;21.04;43.35
8653;BME280;4364;52.426;9.424;2023-05-15T12:30:52;100519.06;;;21.19;43.32
8653;BME280;4364;52.426;9.424;2023-05-15T12:33:19;100526.69;;;20.81;44.10
8653;BME280;4364;52.426;9.424;2023-05-15T12:35:52;100515.84;;;20.88;43.57
8653;BME280;4364;52.426;9.424;2023-05-15T12:38:20;100519.00;;;20.75;44.04
8653;BME280;4364;52.426;9.424;2023-05-15T12:40:50;100518.78;;;20.67;44.60
8653;BME280;4364;52.426;9.424;2023-05-15T12:43:18;100514.63;;;20.61;44.97
8653;BME280;4364;52.426;9.424;2023-05-15T12:45:45;100510.88;;;20.53;44.92
8653;BME280;4364;52.426;9.424;2023-05-15T12:48:15;100513.28;;;20.67;45.29
8653;BME280;4364;52.426;9.424;2023-05-15T12:50:43;100521.47;;;20.51;45.19
8653;BME280;4364;52.426;9.424;2023-05-15T12:53:12;100511.91;;;20.49;45.96
8653;BME280;4364;52.426;9.424;2023-05-15T12:55:39;100517.47;;;20.24;46.50
8653;BME280;4364;52.426;9.424;2023-05-15T12:58:08;100526.56;;;20.25;46.94
8653;BME280;4364;52.426;9.424;2023-05-15T13:00:39;100513.34;;;20.18;45.98
8653;BME280;4364;52.426;9.424;2023-05-15T13:03:10;100515.66;;;20.04;44.75
8653;BME280;4364;52.426;9.424;2023-05-15T13:05:38;100513.81;;;20.20;42.92
8653;BME280;4364;52.426;9.424;2023-05-15T13:08:07;100513.69;;;20.16;42.10
8653;BME280;4364;52.426;9.424;2023-05-15T13:10:35;100522.00;;;20.57;41.96
8653;BME280;4364;52.426;9.424;2023-05-15T13:13:02;100524.31;;;20.67;41.40
8653;BME280;4364;52.426;9.424;2023-05-15T13:15:30;100514.63;;;20.73;40.69
8653;BME280;4364;52.426;9.424;2023-05-15T13:18:05;100513.78;;;20.85;42.07
8653;BME280;4364;52.426;9.424;2023-05-15T13:20:38;100516.81;;;21.24;42.43
8653;BME280;4364;52.426;9.424;2023-05-15T13:23:05;100514.50;;;21.26;41.68
8653;BME280;4364;52.426;9.424;2023-05-15T13:25:33;100518.00;;;21.23;43.00
8653;BME280;4364;52.426;9.424;2023-05-15T13:28:02;100510.31;;;21.17;43.58
8653;BME280;4364;52.426;9.424;2023-05-15T13:30:29;100507.56;;;21.33;43.29
8653;BME280;4364;52.426;9.424;2023-05-15T13:32:56;100499.31;;;21.64;43.03
8653;BME280;4364;52.426;9.424;2023-05-15T13:35:23;100492.88;;;21.76;42.83
8653;BME280;4364;52.426;9.424;2023-05-15T13:37:50;100498.34;;;21.57;43.61
8653;BME280;4364;52.426;9.424;2023-05-15T13:40:16;100500.06;;;21.17;43.87
8653;BME280;4364;52.426;9.424;2023-05-15T13:42:43;100496.25;;;20.65;43.86